Etusivu
METAR-TAF:

METAR-TAF

Lentoasemat :

Waupaca Municipal Airport

Waupaca, Wisconsin, Yhdysvallat

Leveyspiiri: 44-20-01N, Pituuspiiri: 089-00-55W, korkeus merenpinnasta: 252 m

Tämänhetkinen sää

Tämä raportti tehtiin 12 minuuttia sitten, kello 17.35 UTC
Tuuli 6 kn etelästä
Lämpötila -6°C
Kosteus 73%
Ilmanpaine 1017 hPa
Näkyvyys: 8.0 km
Hajanaisia pilviä 1600 ft:n korkeudessa
Hajonneita pilviä 2200 ft:n korkeudessa
Pilvistä 4200 ft:n korkeudessa
heikkoa lumisadetta

METAR: KPCZ 131735Z AUTO 18006KT 5SM -SN SCT016 BKN022 OVC042 M06/M10 A3003 RMK AO2 T10651097

Aika: 11:47 (17:47 UTC)


TAF: puuttuu

Säähavainnot ja -ennusteet yli 4000 lentoasemalta (METAR- ja TAF-raportit).

Käytössä olevat sääasemat on merkitty karttaan keltaisilla ja punaisilla pisteillä.

Aseta hiiri pisteen päälle nähdäksesi sääaseman nimen.

Klikkaa sitten nähdäksesi säähavainnot ja -ennusteet.

Kartan vaihtaminen: klikkaa mustalla rastilla varustettuja vihreitä pisteitä, niin voit zoomata sisään; viivalla varustettua vihreää pistettä, niin voit zoomata ulos tai vihreitä nuolia, niin pääset viereisille kartoille.


METAR-TAF: